sensor_id;sensor_type;location;lat;lon;timestamp;P1;durP1;ratioP1;P2;durP2;ratioP2
46815;SDS011;32787;53.316;8.670;2023-09-07T00:01:22;7.55;;;3.53;;
46815;SDS011;32787;53.316;8.670;2023-09-07T00:03:48;6.43;;;3.80;;
46815;SDS011;32787;53.316;8.670;2023-09-07T00:06:14;5.55;;;3.42;;
46815;SDS011;32787;53.316;8.670;2023-09-07T00:08:40;8.98;;;3.80;;
46815;SDS011;32787;53.316;8.670;2023-09-07T00:11:05;6.43;;;3.88;;
46815;SDS011;32787;53.316;8.670;2023-09-07T00:13:32;7.78;;;3.55;;
46815;SDS011;32787;53.316;8.670;2023-09-07T00:16:02;6.80;;;4.15;;
46815;SDS011;32787;53.316;8.670;2023-09-07T00:18:29;5.78;;;3.20;;
46815;SDS011;32787;53.316;8.670;2023-09-07T00:20:55;9.02;;;4.00;;
46815;SDS011;32787;53.316;8.670;2023-09-07T00:23:21;6.40;;;3.70;;
46815;SDS011;32787;53.316;8.670;2023-09-07T00:25:47;7.85;;;4.00;;
46815;SDS011;32787;53.316;8.670;2023-09-07T00:28:13;8.30;;;4.10;;
46815;SDS011;32787;53.316;8.670;2023-09-07T00:30:39;8.70;;;4.07;;
46815;SDS011;32787;53.316;8.670;2023-09-07T00:33:05;8.43;;;4.18;;
46815;SDS011;32787;53.316;8.670;2023-09-07T00:35:31;7.20;;;3.88;;
46815;SDS011;32787;53.316;8.670;2023-09-07T00:37:56;6.45;;;3.63;;
46815;SDS011;32787;53.316;8.670;2023-09-07T00:40:22;11.18;;;3.88;;
46815;SDS011;32787;53.316;8.670;2023-09-07T00:42:48;6.82;;;4.03;;
46815;SDS011;32787;53.316;8.670;2023-09-07T00:45:13;6.38;;;3.97;;
46815;SDS011;32787;53.316;8.670;2023-09-07T00:47:40;7.88;;;4.00;;
46815;SDS011;32787;53.316;8.670;2023-09-07T00:50:06;6.78;;;3.85;;
46815;SDS011;32787;53.316;8.670;2023-09-07T00:52:32;8.05;;;3.97;;
46815;SDS011;32787;53.316;8.670;2023-09-07T00:54:59;5.80;;;3.47;;
46815;SDS011;32787;53.316;8.670;2023-09-07T00:57:26;6.40;;;3.72;;
46815;SDS011;32787;53.316;8.670;2023-09-07T00:59:52;6.25;;;3.70;;
46815;SDS011;32787;53.316;8.670;2023-09-07T01:02:18;7.10;;;3.85;;
46815;SDS011;32787;53.316;8.670;2023-09-07T01:04:44;10.60;;;4.38;;
46815;SDS011;32787;53.316;8.670;2023-09-07T01:07:26;6.72;;;3.90;;
46815;SDS011;32787;53.316;8.670;2023-09-07T01:09:57;6.88;;;3.97;;
46815;SDS011;32787;53.316;8.670;2023-09-07T01:12:26;6.50;;;3.70;;
46815;SDS011;32787;53.316;8.670;2023-09-07T01:14:52;7.68;;;3.88;;
46815;SDS011;32787;53.316;8.670;2023-09-07T01:17:18;6.53;;;3.70;;
46815;SDS011;32787;53.316;8.670;2023-09-07T01:19:46;7.40;;;3.90;;
46815;SDS011;32787;53.316;8.670;2023-09-07T01:22:15;9.98;;;3.78;;
46815;SDS011;32787;53.316;8.670;2023-09-07T01:24:42;6.82;;;4.13;;
46815;SDS011;32787;53.316;8.670;2023-09-07T01:27:10;8.27;;;4.38;;
46815;SDS011;32787;53.316;8.670;2023-09-07T01:29:38;6.80;;;4.22;;
46815;SDS011;32787;53.316;8.670;2023-09-07T01:32:04;7.10;;;4.30;;
46815;SDS011;32787;53.316;8.670;2023-09-07T01:34:30;7.20;;;3.97;;
46815;SDS011;32787;53.316;8.670;2023-09-07T01:36:56;8.05;;;4.43;;
46815;SDS011;32787;53.316;8.670;2023-09-07T01:39:22;8.07;;;3.97;;
46815;SDS011;32787;53.316;8.670;2023-09-07T01:41:47;7.38;;;3.90;;
46815;SDS011;32787;53.316;8.670;2023-09-07T01:44:13;7.57;;;4.40;;
46815;SDS011;32787;53.316;8.670;2023-09-07T01:46:38;5.95;;;4.15;;
46815;SDS011;32787;53.316;8.670;2023-09-07T01:49:04;8.05;;;4.43;;
46815;SDS011;32787;53.316;8.670;2023-09-07T01:51:30;6.22;;;3.47;;
46815;SDS011;32787;53.316;8.670;2023-09-07T01:53:55;5.72;;;3.28;;
46815;SDS011;32787;53.316;8.670;2023-09-07T01:56:21;9.07;;;3.75;;
46815;SDS011;32787;53.316;8.670;2023-09-07T01:58:46;6.65;;;3.80;;
46815;SDS011;32787;53.316;8.670;2023-09-07T02:01:26;7.68;;;3.95;;
46815;SDS011;32787;53.316;8.670;2023-09-07T02:03:54;5.43;;;3.47;;
46815;SDS011;32787;53.316;8.670;2023-09-07T02:06:20;6.32;;;3.50;;
46815;SDS011;32787;53.316;8.670;2023-09-07T02:08:45;5.88;;;3.22;;
46815;SDS011;32787;53.316;8.670;2023-09-07T02:11:11;5.65;;;3.70;;
46815;SDS011;32787;53.316;8.670;2023-09-07T02:13:37;6.50;;;4.32;;
46815;SDS011;32787;53.316;8.670;2023-09-07T02:16:03;6.63;;;4.40;;
46815;SDS011;32787;53.316;8.670;2023-09-07T02:18:29;8.80;;;4.55;;
46815;SDS011;32787;53.316;8.670;2023-09-07T02:21:00;8.98;;;4.30;;
46815;SDS011;32787;53.316;8.670;2023-09-07T02:23:30;6.65;;;4.22;;
46815;SDS011;32787;53.316;8.670;2023-09-07T02:25:56;8.10;;;4.57;;
46815;SDS011;32787;53.316;8.670;2023-09-07T02:28:22;7.97;;;4.20;;
46815;SDS011;32787;53.316;8.670;2023-09-07T02:30:49;9.55;;;4.60;;
46815;SDS011;32787;53.316;8.670;2023-09-07T02:33:14;8.48;;;4.80;;
46815;SDS011;32787;53.316;8.670;2023-09-07T02:35:40;8.38;;;4.45;;
46815;SDS011;32787;53.316;8.670;2023-09-07T02:38:05;7.57;;;4.47;;
46815;SDS011;32787;53.316;8.670;2023-09-07T02:40:31;6.57;;;4.50;;
46815;SDS011;32787;53.316;8.670;2023-09-07T02:42:56;9.85;;;4.90;;
46815;SDS011;32787;53.316;8.670;2023-09-07T02:45:22;8.13;;;5.10;;
46815;SDS011;32787;53.316;8.670;2023-09-07T02:47:48;9.23;;;4.97;;
46815;SDS011;32787;53.316;8.670;2023-09-07T02:50:15;9.05;;;5.80;;
46815;SDS011;32787;53.316;8.670;2023-09-07T02:52:42;9.35;;;5.47;;
46815;SDS011;32787;53.316;8.670;2023-09-07T02:55:08;8.77;;;5.15;;
46815;SDS011;32787;53.316;8.670;2023-09-07T02:57:34;8.18;;;5.47;;
46815;SDS011;32787;53.316;8.670;2023-09-07T03:00:00;8.25;;;4.90;;
46815;SDS011;32787;53.316;8.670;2023-09-07T03:02:27;10.23;;;5.78;;
46815;SDS011;32787;53.316;8.670;2023-09-07T03:04:53;12.40;;;6.28;;
46815;SDS011;32787;53.316;8.670;2023-09-07T03:07:19;10.02;;;5.85;;
46815;SDS011;32787;53.316;8.670;2023-09-07T03:09:45;11.05;;;6.43;;
46815;SDS011;32787;53.316;8.670;2023-09-07T03:12:11;9.60;;;5.55;;
46815;SDS011;32787;53.316;8.670;2023-09-07T03:14:36;11.05;;;6.00;;
46815;SDS011;32787;53.316;8.670;2023-09-07T03:17:02;9.45;;;5.78;;
46815;SDS011;32787;53.316;8.670;2023-09-07T03:19:28;7.97;;;5.28;;
46815;SDS011;32787;53.316;8.670;2023-09-07T03:21:54;9.23;;;5.38;;
46815;SDS011;32787;53.316;8.670;2023-09-07T03:24:20;11.48;;;5.80;;
46815;SDS011;32787;53.316;8.670;2023-09-07T03:26:45;9.23;;;5.55;;
46815;SDS011;32787;53.316;8.670;2023-09-07T03:29:11;10.35;;;6.50;;
46815;SDS011;32787;53.316;8.670;2023-09-07T03:31:37;9.88;;;5.97;;
46815;SDS011;32787;53.316;8.670;2023-09-07T03:34:02;13.80;;;6.82;;
46815;SDS011;32787;53.316;8.670;2023-09-07T03:36:28;10.27;;;5.90;;
46815;SDS011;32787;53.316;8.670;2023-09-07T03:38:54;9.38;;;6.55;;
46815;SDS011;32787;53.316;8.670;2023-09-07T03:41:19;10.45;;;7.18;;
46815;SDS011;32787;53.316;8.670;2023-09-07T03:43:45;13.15;;;6.85;;
46815;SDS011;32787;53.316;8.670;2023-09-07T03:46:10;14.68;;;6.63;;
46815;SDS011;32787;53.316;8.670;2023-09-07T03:48:36;10.77;;;6.57;;
46815;SDS011;32787;53.316;8.670;2023-09-07T03:51:05;10.32;;;6.38;;
46815;SDS011;32787;53.316;8.670;2023-09-07T03:53:31;10.68;;;6.40;;
46815;SDS011;32787;53.316;8.670;2023-09-07T03:55:57;12.00;;;6.82;;
46815;SDS011;32787;53.316;8.670;2023-09-07T03:58:22;13.93;;;7.07;;
46815;SDS011;32787;53.316;8.670;2023-09-07T04:00:48;12.77;;;7.13;;
46815;SDS011;32787;53.316;8.670;2023-09-07T04:03:14;11.43;;;6.70;;
46815;SDS011;32787;53.316;8.670;2023-09-07T04:05:40;11.23;;;6.78;;
46815;SDS011;32787;53.316;8.670;2023-09-07T04:08:06;10.10;;;6.18;;
46815;SDS011;32787;53.316;8.670;2023-09-07T04:10:32;11.55;;;6.40;;
46815;SDS011;32787;53.316;8.670;2023-09-07T04:12:58;12.90;;;7.13;;
46815;SDS011;32787;53.316;8.670;2023-09-07T04:15:23;10.68;;;6.82;;
46815;SDS011;32787;53.316;8.670;2023-09-07T04:17:50;10.65;;;6.30;;
46815;SDS011;32787;53.316;8.670;2023-09-07T04:20:16;9.98;;;6.38;;
46815;SDS011;32787;53.316;8.670;2023-09-07T04:22:42;11.35;;;6.47;;
46815;SDS011;32787;53.316;8.670;2023-09-07T04:25:08;11.15;;;7.07;;
46815;SDS011;32787;53.316;8.670;2023-09-07T04:27:33;11.88;;;7.40;;
46815;SDS011;32787;53.316;8.670;2023-09-07T04:29:59;10.77;;;6.72;;
46815;SDS011;32787;53.316;8.670;2023-09-07T04:32:25;11.13;;;6.80;;
46815;SDS011;32787;53.316;8.670;2023-09-07T04:34:54;10.45;;;6.60;;
46815;SDS011;32787;53.316;8.670;2023-09-07T04:37:21;12.45;;;6.47;;
46815;SDS011;32787;53.316;8.670;2023-09-07T04:39:49;9.32;;;6.50;;
46815;SDS011;32787;53.316;8.670;2023-09-07T04:42:15;12.13;;;7.20;;
46815;SDS011;32787;53.316;8.670;2023-09-07T04:44:41;12.55;;;7.68;;
46815;SDS011;32787;53.316;8.670;2023-09-07T04:47:07;13.40;;;6.68;;
46815;SDS011;32787;53.316;8.670;2023-09-07T04:49:32;11.73;;;6.50;;
46815;SDS011;32787;53.316;8.670;2023-09-07T04:51:58;13.65;;;7.40;;
46815;SDS011;32787;53.316;8.670;2023-09-07T04:54:24;12.45;;;6.78;;
46815;SDS011;32787;53.316;8.670;2023-09-07T04:56:50;15.75;;;6.78;;
46815;SDS011;32787;53.316;8.670;2023-09-07T04:59:15;16.00;;;7.32;;
46815;SDS011;32787;53.316;8.670;2023-09-07T05:01:41;17.25;;;7.22;;
46815;SDS011;32787;53.316;8.670;2023-09-07T05:04:06;16.45;;;6.95;;
46815;SDS011;32787;53.316;8.670;2023-09-07T05:06:32;22.02;;;7.85;;
46815;SDS011;32787;53.316;8.670;2023-09-07T05:09:02;22.75;;;7.07;;
46815;SDS011;32787;53.316;8.670;2023-09-07T05:11:28;20.48;;;6.85;;
46815;SDS011;32787;53.316;8.670;2023-09-07T05:13:54;17.15;;;7.40;;
46815;SDS011;32787;53.316;8.670;2023-09-07T05:16:19;15.88;;;7.70;;
46815;SDS011;32787;53.316;8.670;2023-09-07T05:18:45;14.15;;;7.22;;
46815;SDS011;32787;53.316;8.670;2023-09-07T05:21:11;15.90;;;8.10;;
46815;SDS011;32787;53.316;8.670;2023-09-07T05:26:06;15.65;;;7.68;;
46815;SDS011;32787;53.316;8.670;2023-09-07T05:28:32;16.23;;;7.70;;
46815;SDS011;32787;53.316;8.670;2023-09-07T05:30:57;20.05;;;7.32;;
46815;SDS011;32787;53.316;8.670;2023-09-07T05:33:23;18.27;;;7.70;;
46815;SDS011;32787;53.316;8.670;2023-09-07T05:35:49;13.10;;;7.45;;
46815;SDS011;32787;53.316;8.670;2023-09-07T05:38:14;13.55;;;7.07;;
46815;SDS011;32787;53.316;8.670;2023-09-07T05:40:41;14.70;;;7.22;;
46815;SDS011;32787;53.316;8.670;2023-09-07T05:43:09;14.70;;;7.45;;
46815;SDS011;32787;53.316;8.670;2023-09-07T05:45:36;13.40;;;7.32;;
46815;SDS011;32787;53.316;8.670;2023-09-07T05:48:04;12.32;;;6.38;;
46815;SDS011;32787;53.316;8.670;2023-09-07T05:50:31;14.27;;;6.80;;
46815;SDS011;32787;53.316;8.670;2023-09-07T05:52:58;13.25;;;7.32;;
46815;SDS011;32787;53.316;8.670;2023-09-07T05:55:24;15.70;;;8.40;;
46815;SDS011;32787;53.316;8.670;2023-09-07T05:57:49;13.65;;;7.78;;
46815;SDS011;32787;53.316;8.670;2023-09-07T06:00:15;11.85;;;6.47;;
46815;SDS011;32787;53.316;8.670;2023-09-07T06:02:42;11.05;;;7.00;;
46815;SDS011;32787;53.316;8.670;2023-09-07T06:05:09;13.32;;;6.80;;
46815;SDS011;32787;53.316;8.670;2023-09-07T06:07:35;11.77;;;7.30;;
46815;SDS011;32787;53.316;8.670;2023-09-07T06:10:01;12.85;;;7.10;;
46815;SDS011;32787;53.316;8.670;2023-09-07T06:12:27;13.50;;;7.38;;
46815;SDS011;32787;53.316;8.670;2023-09-07T06:14:52;14.30;;;7.35;;
46815;SDS011;32787;53.316;8.670;2023-09-07T06:17:18;10.27;;;6.30;;
46815;SDS011;32787;53.316;8.670;2023-09-07T06:19:44;11.45;;;6.85;;
46815;SDS011;32787;53.316;8.670;2023-09-07T06:22:11;18.33;;;7.22;;
46815;SDS011;32787;53.316;8.670;2023-09-07T06:24:37;19.90;;;7.20;;
46815;SDS011;32787;53.316;8.670;2023-09-07T06:27:02;10.75;;;7.10;;
46815;SDS011;32787;53.316;8.670;2023-09-07T06:29:28;15.70;;;7.30;;
46815;SDS011;32787;53.316;8.670;2023-09-07T06:31:54;12.20;;;7.88;;
46815;SDS011;32787;53.316;8.670;2023-09-07T06:34:19;13.23;;;7.50;;
46815;SDS011;32787;53.316;8.670;2023-09-07T06:36:45;12.05;;;7.20;;
46815;SDS011;32787;53.316;8.670;2023-09-07T06:39:10;10.60;;;6.72;;
46815;SDS011;32787;53.316;8.670;2023-09-07T06:41:36;13.80;;;7.50;;
46815;SDS011;32787;53.316;8.670;2023-09-07T06:44:02;11.40;;;7.55;;
46815;SDS011;32787;53.316;8.670;2023-09-07T06:46:27;14.90;;;7.03;;
46815;SDS011;32787;53.316;8.670;2023-09-07T06:48:53;14.82;;;7.63;;
46815;SDS011;32787;53.316;8.670;2023-09-07T06:51:18;12.38;;;7.13;;
46815;SDS011;32787;53.316;8.670;2023-09-07T06:53:44;13.77;;;7.75;;
46815;SDS011;32787;53.316;8.670;2023-09-07T06:56:10;11.43;;;6.65;;
46815;SDS011;32787;53.316;8.670;2023-09-07T06:58:35;9.60;;;6.63;;
46815;SDS011;32787;53.316;8.670;2023-09-07T07:01:01;10.40;;;6.40;;
46815;SDS011;32787;53.316;8.670;2023-09-07T07:03:27;11.50;;;6.93;;
46815;SDS011;32787;53.316;8.670;2023-09-07T07:05:54;10.32;;;7.22;;
46815;SDS011;32787;53.316;8.670;2023-09-07T07:08:20;12.45;;;7.18;;
46815;SDS011;32787;53.316;8.670;2023-09-07T07:10:46;13.10;;;7.18;;
46815;SDS011;32787;53.316;8.670;2023-09-07T07:13:12;10.35;;;6.70;;
46815;SDS011;32787;53.316;8.670;2023-09-07T07:15:38;12.95;;;7.30;;
46815;SDS011;32787;53.316;8.670;2023-09-07T07:18:03;10.15;;;6.53;;
46815;SDS011;32787;53.316;8.670;2023-09-07T07:20:37;10.63;;;6.78;;
46815;SDS011;32787;53.316;8.670;2023-09-07T07:23:03;11.35;;;7.10;;
46815;SDS011;32787;53.316;8.670;2023-09-07T07:25:31;11.68;;;6.13;;
46815;SDS011;32787;53.316;8.670;2023-09-07T07:27:58;14.88;;;7.25;;
46815;SDS011;32787;53.316;8.670;2023-09-07T07:30:37;14.00;;;6.45;;
46815;SDS011;32787;53.316;8.670;2023-09-07T07:33:07;13.85;;;7.65;;
46815;SDS011;32787;53.316;8.670;2023-09-07T07:35:33;9.73;;;6.45;;
46815;SDS011;32787;53.316;8.670;2023-09-07T07:38:02;11.88;;;6.18;;
46815;SDS011;32787;53.316;8.670;2023-09-07T07:40:32;10.68;;;7.05;;
46815;SDS011;32787;53.316;8.670;2023-09-07T07:42:58;10.75;;;6.35;;
46815;SDS011;32787;53.316;8.670;2023-09-07T07:45:24;12.18;;;6.82;;
46815;SDS011;32787;53.316;8.670;2023-09-07T07:47:50;12.90;;;7.10;;
46815;SDS011;32787;53.316;8.670;2023-09-07T07:50:16;11.10;;;6.68;;
46815;SDS011;32787;53.316;8.670;2023-09-07T07:52:43;10.57;;;6.28;;
46815;SDS011;32787;53.316;8.670;2023-09-07T07:55:09;12.75;;;6.63;;
46815;SDS011;32787;53.316;8.670;2023-09-07T07:57:35;10.73;;;5.75;;
46815;SDS011;32787;53.316;8.670;2023-09-07T08:00:01;10.80;;;6.50;;
46815;SDS011;32787;53.316;8.670;2023-09-07T08:02:29;10.65;;;6.35;;
46815;SDS011;32787;53.316;8.670;2023-09-07T08:04:55;10.60;;;6.60;;
46815;SDS011;32787;53.316;8.670;2023-09-07T08:07:20;9.88;;;5.93;;
46815;SDS011;32787;53.316;8.670;2023-09-07T08:09:46;11.10;;;6.25;;
46815;SDS011;32787;53.316;8.670;2023-09-07T08:12:12;10.93;;;6.07;;
46815;SDS011;32787;53.316;8.670;2023-09-07T08:14:38;10.98;;;5.82;;
46815;SDS011;32787;53.316;8.670;2023-09-07T08:17:03;9.82;;;6.28;;
46815;SDS011;32787;53.316;8.670;2023-09-07T08:19:29;9.38;;;6.05;;
46815;SDS011;32787;53.316;8.670;2023-09-07T08:21:55;10.30;;;5.63;;
46815;SDS011;32787;53.316;8.670;2023-09-07T08:24:20;12.60;;;6.07;;
46815;SDS011;32787;53.316;8.670;2023-09-07T08:26:46;11.73;;;5.80;;
46815;SDS011;32787;53.316;8.670;2023-09-07T08:29:16;9.82;;;5.60;;
46815;SDS011;32787;53.316;8.670;2023-09-07T08:31:42;10.23;;;5.63;;
46815;SDS011;32787;53.316;8.670;2023-09-07T08:34:10;8.45;;;5.28;;
46815;SDS011;32787;53.316;8.670;2023-09-07T08:36:36;14.23;;;5.95;;
46815;SDS011;32787;53.316;8.670;2023-09-07T08:39:03;10.32;;;5.32;;
46815;SDS011;32787;53.316;8.670;2023-09-07T08:41:36;12.25;;;5.35;;
46815;SDS011;32787;53.316;8.670;2023-09-07T08:44:07;11.25;;;5.68;;
46815;SDS011;32787;53.316;8.670;2023-09-07T08:46:34;11.38;;;5.13;;
46815;SDS011;32787;53.316;8.670;2023-09-07T08:49:00;10.07;;;5.78;;
46815;SDS011;32787;53.316;8.670;2023-09-07T08:51:27;8.70;;;5.43;;
46815;SDS011;32787;53.316;8.670;2023-09-07T08:53:56;8.45;;;5.40;;
46815;SDS011;32787;53.316;8.670;2023-09-07T08:56:23;8.48;;;5.40;;
46815;SDS011;32787;53.316;8.670;2023-09-07T08:58:50;9.23;;;4.97;;
46815;SDS011;32787;53.316;8.670;2023-09-07T09:01:16;8.40;;;4.97;;
46815;SDS011;32787;53.316;8.670;2023-09-07T09:03:42;10.98;;;5.20;;
46815;SDS011;32787;53.316;8.670;2023-09-07T09:06:08;11.90;;;5.68;;
46815;SDS011;32787;53.316;8.670;2023-09-07T09:08:45;9.43;;;5.70;;
46815;SDS011;32787;53.316;8.670;2023-09-07T09:11:14;8.20;;;5.25;;
46815;SDS011;32787;53.316;8.670;2023-09-07T09:13:41;10.25;;;5.22;;
46815;SDS011;32787;53.316;8.670;2023-09-07T09:16:07;7.65;;;4.80;;
46815;SDS011;32787;53.316;8.670;2023-09-07T09:18:33;11.27;;;4.90;;
46815;SDS011;32787;53.316;8.670;2023-09-07T09:20:59;7.35;;;4.70;;
46815;SDS011;32787;53.316;8.670;2023-09-07T09:23:34;10.30;;;4.93;;
46815;SDS011;32787;53.316;8.670;2023-09-07T09:26:01;9.60;;;4.70;;
46815;SDS011;32787;53.316;8.670;2023-09-07T09:28:28;7.38;;;4.90;;
46815;SDS011;32787;53.316;8.670;2023-09-07T09:30:56;8.70;;;5.25;;
46815;SDS011;32787;53.316;8.670;2023-09-07T09:33:23;7.57;;;5.00;;
46815;SDS011;32787;53.316;8.670;2023-09-07T09:35:50;7.53;;;4.90;;
46815;SDS011;32787;53.316;8.670;2023-09-07T09:38:18;8.40;;;5.15;;
46815;SDS011;32787;53.316;8.670;2023-09-07T09:40:44;11.70;;;5.03;;
46815;SDS011;32787;53.316;8.670;2023-09-07T09:43:10;7.22;;;4.75;;
46815;SDS011;32787;53.316;8.670;2023-09-07T09:45:37;9.55;;;5.10;;
46815;SDS011;32787;53.316;8.670;2023-09-07T09:48:03;8.52;;;5.10;;
46815;SDS011;32787;53.316;8.670;2023-09-07T09:50:31;11.13;;;4.82;;
46815;SDS011;32787;53.316;8.670;2023-09-07T09:53:02;9.70;;;5.32;;
46815;SDS011;32787;53.316;8.670;2023-09-07T09:55:32;10.30;;;5.07;;
46815;SDS011;32787;53.316;8.670;2023-09-07T09:58:00;8.27;;;5.30;;
46815;SDS011;32787;53.316;8.670;2023-09-07T10:00:26;9.27;;;5.07;;
46815;SDS011;32787;53.316;8.670;2023-09-07T10:03:10;9.55;;;5.03;;
46815;SDS011;32787;53.316;8.670;2023-09-07T10:05:48;8.57;;;5.07;;
46815;SDS011;32787;53.316;8.670;2023-09-07T10:08:15;11.18;;;5.60;;
46815;SDS011;32787;53.316;8.670;2023-09-07T10:10:42;7.87;;;4.90;;
46815;SDS011;32787;53.316;8.670;2023-09-07T10:13:12;8.20;;;5.00;;
46815;SDS011;32787;53.316;8.670;2023-09-07T10:15:39;8.65;;;4.88;;
46815;SDS011;32787;53.316;8.670;2023-09-07T10:18:05;10.32;;;4.97;;
46815;SDS011;32787;53.316;8.670;2023-09-07T10:23:19;10.52;;;5.00;;
46815;SDS011;32787;53.316;8.670;2023-09-07T10:25:51;7.93;;;4.78;;
46815;SDS011;32787;53.316;8.670;2023-09-07T10:28:22;9.25;;;4.78;;
46815;SDS011;32787;53.316;8.670;2023-09-07T10:31:04;7.93;;;5.10;;
46815;SDS011;32787;53.316;8.670;2023-09-07T10:33:32;8.93;;;4.90;;
46815;SDS011;32787;53.316;8.670;2023-09-07T10:35:59;7.88;;;4.70;;
46815;SDS011;32787;53.316;8.670;2023-09-07T10:38:25;8.43;;;4.85;;
46815;SDS011;32787;53.316;8.670;2023-09-07T10:40:54;7.38;;;4.50;;
46815;SDS011;32787;53.316;8.670;2023-09-07T10:43:25;7.55;;;4.95;;
46815;SDS011;32787;53.316;8.670;2023-09-07T10:45:51;9.93;;;4.68;;
46815;SDS011;32787;53.316;8.670;2023-09-07T10:48:16;8.25;;;4.95;;
46815;SDS011;32787;53.316;8.670;2023-09-07T10:50:45;8.13;;;4.50;;
46815;SDS011;32787;53.316;8.670;2023-09-07T10:53:12;8.88;;;5.03;;
46815;SDS011;32787;53.316;8.670;2023-09-07T10:55:39;11.27;;;4.80;;
46815;SDS011;32787;53.316;8.670;2023-09-07T10:58:06;12.23;;;4.90;;
46815;SDS011;32787;53.316;8.670;2023-09-07T11:00:34;8.43;;;4.88;;
46815;SDS011;32787;53.316;8.670;2023-09-07T11:03:05;13.05;;;5.57;;
46815;SDS011;32787;53.316;8.670;2023-09-07T11:05:35;8.25;;;4.82;;
46815;SDS011;32787;53.316;8.670;2023-09-07T11:08:06;11.13;;;5.35;;
46815;SDS011;32787;53.316;8.670;2023-09-07T11:10:33;8.25;;;5.15;;
46815;SDS011;32787;53.316;8.670;2023-09-07T11:13:01;8.20;;;4.65;;
46815;SDS011;32787;53.316;8.670;2023-09-07T11:15:29;9.77;;;5.25;;
46815;SDS011;32787;53.316;8.670;2023-09-07T11:17:55;8.75;;;5.25;;
46815;SDS011;32787;53.316;8.670;2023-09-07T11:20:22;13.30;;;5.10;;
46815;SDS011;32787;53.316;8.670;2023-09-07T11:22:49;8.35;;;4.30;;
46815;SDS011;32787;53.316;8.670;2023-09-07T11:25:15;6.85;;;4.32;;
46815;SDS011;32787;53.316;8.670;2023-09-07T11:27:41;8.57;;;4.63;;
46815;SDS011;32787;53.316;8.670;2023-09-07T11:30:06;8.20;;;4.20;;
46815;SDS011;32787;53.316;8.670;2023-09-07T11:32:36;8.35;;;4.63;;
46815;SDS011;32787;53.316;8.670;2023-09-07T11:35:02;7.47;;;4.63;;
46815;SDS011;32787;53.316;8.670;2023-09-07T11:37:32;8.93;;;4.30;;
46815;SDS011;32787;53.316;8.670;2023-09-07T11:39:58;10.35;;;4.28;;
46815;SDS011;32787;53.316;8.670;2023-09-07T11:42:24;8.13;;;4.15;;
46815;SDS011;32787;53.316;8.670;2023-09-07T11:44:50;8.05;;;4.45;;
46815;SDS011;32787;53.316;8.670;2023-09-07T11:47:15;7.63;;;4.15;;
46815;SDS011;32787;53.316;8.670;2023-09-07T11:49:41;7.60;;;3.75;;
46815;SDS011;32787;53.316;8.670;2023-09-07T11:52:06;13.15;;;4.55;;
46815;SDS011;32787;53.316;8.670;2023-09-07T11:54:32;8.45;;;4.53;;
46815;SDS011;32787;53.316;8.670;2023-09-07T11:56:58;7.88;;;4.28;;
46815;SDS011;32787;53.316;8.670;2023-09-07T11:59:23;8.13;;;4.28;;
46815;SDS011;32787;53.316;8.670;2023-09-07T12:01:49;7.43;;;4.20;;
46815;SDS011;32787;53.316;8.670;2023-09-07T12:04:15;6.90;;;4.30;;
46815;SDS011;32787;53.316;8.670;2023-09-07T12:06:41;6.88;;;3.85;;
46815;SDS011;32787;53.316;8.670;2023-09-07T12:09:07;7.53;;;3.75;;
46815;SDS011;32787;53.316;8.670;2023-09-07T12:11:34;8.98;;;3.75;;
46815;SDS011;32787;53.316;8.670;2023-09-07T12:14:00;6.07;;;3.50;;
46815;SDS011;32787;53.316;8.670;2023-09-07T12:16:26;7.13;;;3.60;;
46815;SDS011;32787;53.316;8.670;2023-09-07T12:18:52;7.03;;;3.80;;
46815;SDS011;32787;53.316;8.670;2023-09-07T12:21:18;6.28;;;3.88;;
46815;SDS011;32787;53.316;8.670;2023-09-07T12:23:44;8.10;;;3.85;;
46815;SDS011;32787;53.316;8.670;2023-09-07T12:26:10;7.55;;;3.38;;
46815;SDS011;32787;53.316;8.670;2023-09-07T12:28:36;8.15;;;3.33;;
46815;SDS011;32787;53.316;8.670;2023-09-07T12:31:02;9.65;;;4.38;;
46815;SDS011;32787;53.316;8.670;2023-09-07T12:33:28;7.38;;;3.50;;
46815;SDS011;32787;53.316;8.670;2023-09-07T12:35:55;7.07;;;3.28;;
46815;SDS011;32787;53.316;8.670;2023-09-07T12:38:21;6.78;;;3.30;;
46815;SDS011;32787;53.316;8.670;2023-09-07T12:40:52;12.32;;;3.50;;
46815;SDS011;32787;53.316;8.670;2023-09-07T12:43:18;7.03;;;3.25;;
46815;SDS011;32787;53.316;8.670;2023-09-07T12:45:43;8.20;;;3.92;;
46815;SDS011;32787;53.316;8.670;2023-09-07T12:48:10;7.88;;;3.90;;
46815;SDS011;32787;53.316;8.670;2023-09-07T12:50:36;6.13;;;3.50;;
46815;SDS011;32787;53.316;8.670;2023-09-07T12:53:01;5.75;;;3.22;;
46815;SDS011;32787;53.316;8.670;2023-09-07T12:55:27;5.70;;;3.50;;
46815;SDS011;32787;53.316;8.670;2023-09-07T12:57:54;8.00;;;3.70;;
46815;SDS011;32787;53.316;8.670;2023-09-07T13:00:20;8.48;;;3.50;;
46815;SDS011;32787;53.316;8.670;2023-09-07T13:02:46;6.30;;;3.63;;
46815;SDS011;32787;53.316;8.670;2023-09-07T13:05:11;7.63;;;3.47;;
46815;SDS011;32787;53.316;8.670;2023-09-07T13:07:37;6.78;;;3.22;;
46815;SDS011;32787;53.316;8.670;2023-09-07T13:10:04;5.57;;;3.00;;
46815;SDS011;32787;53.316;8.670;2023-09-07T13:12:31;5.50;;;2.97;;
46815;SDS011;32787;53.316;8.670;2023-09-07T13:14:57;6.45;;;3.63;;
46815;SDS011;32787;53.316;8.670;2023-09-07T13:17:23;5.35;;;3.03;;
46815;SDS011;32787;53.316;8.670;2023-09-07T13:19:49;6.70;;;3.03;;
46815;SDS011;32787;53.316;8.670;2023-09-07T13:22:14;6.55;;;2.78;;
46815;SDS011;32787;53.316;8.670;2023-09-07T13:24:40;7.20;;;2.92;;
46815;SDS011;32787;53.316;8.670;2023-09-07T13:27:06;6.13;;;3.22;;
46815;SDS011;32787;53.316;8.670;2023-09-07T13:29:32;6.85;;;2.85;;
46815;SDS011;32787;53.316;8.670;2023-09-07T13:31:58;8.65;;;3.10;;
46815;SDS011;32787;53.316;8.670;2023-09-07T13:34:24;6.45;;;3.10;;
46815;SDS011;32787;53.316;8.670;2023-09-07T13:36:50;5.72;;;3.28;;
46815;SDS011;32787;53.316;8.670;2023-09-07T13:39:16;8.70;;;3.70;;
46815;SDS011;32787;53.316;8.670;2023-09-07T13:41:41;7.78;;;3.25;;
46815;SDS011;32787;53.316;8.670;2023-09-07T13:44:07;5.75;;;2.70;;
46815;SDS011;32787;53.316;8.670;2023-09-07T13:46:33;5.70;;;3.38;;
46815;SDS011;32787;53.316;8.670;2023-09-07T13:48:59;8.52;;;3.20;;
46815;SDS011;32787;53.316;8.670;2023-09-07T13:51:25;8.40;;;3.05;;
46815;SDS011;32787;53.316;8.670;2023-09-07T13:53:51;6.00;;;3.13;;
46815;SDS011;32787;53.316;8.670;2023-09-07T13:56:17;5.40;;;3.00;;
46815;SDS011;32787;53.316;8.670;2023-09-07T13:58:43;7.05;;;3.17;;
46815;SDS011;32787;53.316;8.670;2023-09-07T14:01:09;5.10;;;2.95;;
46815;SDS011;32787;53.316;8.670;2023-09-07T14:03:34;7.65;;;3.35;;
46815;SDS011;32787;53.316;8.670;2023-09-07T14:06:01;6.60;;;3.03;;
46815;SDS011;32787;53.316;8.670;2023-09-07T14:08:27;7.53;;;3.45;;
46815;SDS011;32787;53.316;8.670;2023-09-07T14:10:55;6.85;;;3.17;;
46815;SDS011;32787;53.316;8.670;2023-09-07T14:13:21;7.15;;;3.20;;
46815;SDS011;32787;53.316;8.670;2023-09-07T14:15:46;6.13;;;3.08;;
46815;SDS011;32787;53.316;8.670;2023-09-07T14:18:12;5.70;;;3.33;;
46815;SDS011;32787;53.316;8.670;2023-09-07T14:20:38;6.32;;;3.00;;
46815;SDS011;32787;53.316;8.670;2023-09-07T14:23:03;5.35;;;3.17;;
46815;SDS011;32787;53.316;8.670;2023-09-07T14:25:29;7.05;;;3.47;;
46815;SDS011;32787;53.316;8.670;2023-09-07T14:27:55;5.50;;;2.70;;
46815;SDS011;32787;53.316;8.670;2023-09-07T14:30:21;5.85;;;3.10;;
46815;SDS011;32787;53.316;8.670;2023-09-07T14:32:46;5.45;;;3.20;;
46815;SDS011;32787;53.316;8.670;2023-09-07T14:35:14;7.13;;;3.13;;
46815;SDS011;32787;53.316;8.670;2023-09-07T14:37:42;6.73;;;3.43;;
46815;SDS011;32787;53.316;8.670;2023-09-07T14:40:08;5.82;;;2.90;;
46815;SDS011;32787;53.316;8.670;2023-09-07T14:42:34;8.00;;;3.30;;
46815;SDS011;32787;53.316;8.670;2023-09-07T14:44:59;7.18;;;3.40;;